createdAt,value
2019-05-13T00:00:31.048Z,0.00
2019-05-13T00:01:31.036Z,0.00
2019-05-13T00:02:31.009Z,0.00
2019-05-13T00:03:32.893Z,0.00
2019-05-13T00:04:30.904Z,0.00
2019-05-13T00:05:30.836Z,0.00
2019-05-13T00:06:30.799Z,0.00
2019-05-13T00:07:30.759Z,0.00
2019-05-13T00:08:33.613Z,0.00
2019-05-13T00:09:30.706Z,0.00
2019-05-13T00:10:30.647Z,0.00
2019-05-13T00:11:30.608Z,0.00
2019-05-13T00:12:30.585Z,0.00
2019-05-13T00:13:30.578Z,0.00
2019-05-13T00:14:30.482Z,0.00
2019-05-13T00:15:30.469Z,0.00
2019-05-13T00:16:30.378Z,0.00
2019-05-13T00:17:30.347Z,0.00
2019-05-13T00:18:30.338Z,0.00
2019-05-13T00:19:30.268Z,0.00
2019-05-13T00:20:30.256Z,0.00
2019-05-13T00:21:30.191Z,0.00
2019-05-13T00:22:30.137Z,0.00
2019-05-13T00:23:30.108Z,0.00
2019-05-13T00:24:30.064Z,0.00
2019-05-13T00:25:30.020Z,0.00
2019-05-13T00:26:29.979Z,0.00
2019-05-13T00:27:29.966Z,0.00
2019-05-13T00:28:29.892Z,0.00
2019-05-13T00:29:29.838Z,0.00
2019-05-13T00:30:29.843Z,0.00
2019-05-13T00:31:29.801Z,0.00
2019-05-13T00:32:29.717Z,0.00
2019-05-13T00:33:29.681Z,0.00
2019-05-13T00:34:29.644Z,0.00
2019-05-13T00:35:29.612Z,0.00
2019-05-13T00:36:29.560Z,0.00
2019-05-13T00:37:29.530Z,0.00
2019-05-13T00:38:29.485Z,0.00
2019-05-13T00:39:29.446Z,0.00
2019-05-13T00:40:29.399Z,0.00
2019-05-13T00:41:29.383Z,0.00
2019-05-13T00:42:30.052Z,0.00
2019-05-13T00:43:29.266Z,0.00
2019-05-13T00:44:29.210Z,0.00
2019-05-13T00:45:29.180Z,0.00
2019-05-13T00:46:29.177Z,0.00
2019-05-13T00:47:29.090Z,0.00
2019-05-13T00:48:29.830Z,0.00
2019-05-13T00:49:29.026Z,0.00
2019-05-13T00:50:28.976Z,0.00
2019-05-13T00:51:28.973Z,0.00
2019-05-13T00:52:28.926Z,0.00
2019-05-13T00:53:28.830Z,0.00
2019-05-13T00:54:28.796Z,0.00
2019-05-13T00:55:28.763Z,0.00
2019-05-13T00:56:28.701Z,0.00
2019-05-13T00:57:28.671Z,0.00
2019-05-13T00:58:28.612Z,0.00
2019-05-13T00:59:28.573Z,0.00
2019-05-13T01:00:28.562Z,0.00
2019-05-13T01:01:28.495Z,0.00
2019-05-13T01:02:28.470Z,0.00
2019-05-13T01:03:28.488Z,0.00
2019-05-13T01:04:28.366Z,0.00
2019-05-13T01:05:28.372Z,0.00
2019-05-13T01:06:28.299Z,0.00
2019-05-13T01:07:29.148Z,0.00
2019-05-13T01:08:28.233Z,0.00
2019-05-13T01:09:28.166Z,0.00
2019-05-13T01:10:28.132Z,0.00
2019-05-13T01:11:28.085Z,0.00
2019-05-13T01:12:28.064Z,0.00
2019-05-13T01:13:27.987Z,0.00
2019-05-13T01:14:27.949Z,0.00
2019-05-13T01:15:27.914Z,0.00
2019-05-13T01:16:27.925Z,0.00
2019-05-13T01:17:27.818Z,0.00
2019-05-13T01:18:27.791Z,0.00
2019-05-13T01:19:27.752Z,0.00
2019-05-13T01:20:27.737Z,0.00
2019-05-13T01:21:27.675Z,0.00
2019-05-13T01:22:27.630Z,0.00
2019-05-13T01:23:27.576Z,0.00
2019-05-13T01:24:27.540Z,0.00
2019-05-13T01:25:27.510Z,0.00
2019-05-13T01:26:27.438Z,0.00
2019-05-13T01:27:27.404Z,0.00
2019-05-13T01:28:27.365Z,0.00
2019-05-13T01:29:27.322Z,0.00
2019-05-13T01:30:27.279Z,0.00
2019-05-13T01:31:27.240Z,0.00
2019-05-13T01:32:27.196Z,0.00
2019-05-13T01:33:27.141Z,0.00
2019-05-13T01:34:27.113Z,0.00
2019-05-13T01:35:27.097Z,0.00
2019-05-13T01:36:27.032Z,0.00
2019-05-13T01:37:39.067Z,0.00
2019-05-13T01:38:26.930Z,0.00
2019-05-13T01:39:26.908Z,0.00
2019-05-13T01:40:26.883Z,0.00
2019-05-13T01:41:26.856Z,0.00
2019-05-13T01:42:26.792Z,0.00
2019-05-13T01:43:27.566Z,0.00
2019-05-13T01:44:26.728Z,0.00
2019-05-13T01:45:26.668Z,0.00
2019-05-13T01:46:26.600Z,0.00
2019-05-13T01:47:26.588Z,0.00
2019-05-13T01:48:26.530Z,0.00
2019-05-13T01:49:26.513Z,0.00
2019-05-13T01:50:26.460Z,0.00
2019-05-13T01:51:26.398Z,0.00
2019-05-13T01:52:26.355Z,0.00
2019-05-13T01:53:26.422Z,0.00
2019-05-13T01:54:26.289Z,0.00
2019-05-13T01:55:26.246Z,0.00
2019-05-13T01:56:26.181Z,0.00
2019-05-13T01:57:26.132Z,0.00
2019-05-13T01:58:26.143Z,0.00
2019-05-13T01:59:26.105Z,0.00
2019-05-13T02:00:26.040Z,0.00
2019-05-13T02:01:25.957Z,0.00
2019-05-13T02:02:25.936Z,0.00
2019-05-13T02:03:25.887Z,0.00
2019-05-13T02:04:25.838Z,0.00
2019-05-13T02:05:25.791Z,0.00
2019-05-13T02:06:25.749Z,0.00
2019-05-13T02:07:25.712Z,0.00
2019-05-13T02:08:25.677Z,0.00
2019-05-13T02:09:25.651Z,0.00
2019-05-13T02:10:25.605Z,0.00
2019-05-13T02:11:25.549Z,0.00
2019-05-13T02:12:25.503Z,0.00
2019-05-13T02:13:25.471Z,0.00
2019-05-13T02:14:25.431Z,0.00
2019-05-13T02:15:25.403Z,0.00
2019-05-13T02:16:25.354Z,0.00
2019-05-13T02:17:25.298Z,0.00
2019-05-13T02:18:25.269Z,0.00
2019-05-13T02:19:25.205Z,0.00
2019-05-13T02:20:25.202Z,0.00
2019-05-13T02:21:25.159Z,0.00
2019-05-13T02:22:25.091Z,0.00
2019-05-13T02:23:25.048Z,0.00
2019-05-13T02:24:24.993Z,0.00
2019-05-13T02:25:24.968Z,0.00
2019-05-13T02:26:24.919Z,0.00
2019-05-13T02:27:25.563Z,0.00
2019-05-13T02:28:25.295Z,0.00
2019-05-13T02:29:24.786Z,0.00
2019-05-13T02:30:26.783Z,0.00
2019-05-13T02:31:39.128Z,0.00
2019-05-13T02:32:24.666Z,0.00
2019-05-13T02:33:24.648Z,0.00
2019-05-13T02:34:24.569Z,0.00
2019-05-13T02:35:24.536Z,0.00
2019-05-13T02:36:24.487Z,0.00
2019-05-13T02:37:25.662Z,0.00
2019-05-13T02:38:29.732Z,0.00
2019-05-13T02:39:24.401Z,0.00
2019-05-13T02:40:24.329Z,0.00
2019-05-13T02:41:24.307Z,0.00
2019-05-13T02:42:25.075Z,0.00
2019-05-13T02:43:24.475Z,0.00
2019-05-13T02:44:24.184Z,0.00
2019-05-13T02:45:24.099Z,0.00
2019-05-13T02:46:24.065Z,0.00
2019-05-13T02:47:24.007Z,0.00
2019-05-13T02:48:24.434Z,0.00
2019-05-13T02:49:23.983Z,0.00
2019-05-13T02:50:23.905Z,0.00
2019-05-13T02:51:23.887Z,0.00
2019-05-13T02:52:23.822Z,0.00
2019-05-13T02:53:24.429Z,0.00
2019-05-13T02:54:23.724Z,0.00
2019-05-13T02:55:23.683Z,0.00
2019-05-13T02:56:23.643Z,0.00
2019-05-13T02:57:23.589Z,0.00
2019-05-13T02:58:24.801Z,0.00
2019-05-13T02:59:23.506Z,0.00
2019-05-13T03:00:23.722Z,0.00
2019-05-13T03:01:23.419Z,0.00
2019-05-13T03:02:23.388Z,0.00
2019-05-13T03:03:23.869Z,0.00
2019-05-13T03:04:23.620Z,0.00
2019-05-13T03:05:23.255Z,0.00
2019-05-13T03:06:23.222Z,0.00
2019-05-13T03:07:23.520Z,0.00
2019-05-13T03:08:39.746Z,0.00
2019-05-13T03:09:23.187Z,0.00
2019-05-13T03:10:23.041Z,0.00
2019-05-13T03:11:23.052Z,0.00
2019-05-13T03:12:23.303Z,0.00
2019-05-13T03:13:23.744Z,0.00
2019-05-13T03:14:23.946Z,5.63
2019-05-13T03:15:23.186Z,5.63
2019-05-13T03:16:23.272Z,5.63
2019-05-13T03:17:22.765Z,5.63
2019-05-13T03:18:22.812Z,5.63
2019-05-13T03:19:22.822Z,5.63
2019-05-13T03:20:23.267Z,11.25
2019-05-13T03:21:23.393Z,11.25
2019-05-13T03:22:22.691Z,11.25
2019-05-13T03:23:22.989Z,11.25
2019-05-13T03:24:23.126Z,16.88
2019-05-13T03:25:23.048Z,16.88
2019-05-13T03:26:23.401Z,16.88
2019-05-13T03:27:25.178Z,22.50
2019-05-13T03:28:22.608Z,22.50
2019-05-13T03:29:22.455Z,22.50
2019-05-13T03:30:25.450Z,28.13
2019-05-13T03:31:26.116Z,28.13
2019-05-13T03:32:26.654Z,28.13
2019-05-13T03:33:27.680Z,33.75
2019-05-13T03:34:26.763Z,33.75
2019-05-13T03:35:26.810Z,39.38
2019-05-13T03:36:25.754Z,39.38
2019-05-13T03:37:26.251Z,45.00
2019-05-13T03:38:22.608Z,45.00
2019-05-13T03:39:22.476Z,50.63
2019-05-13T03:40:23.208Z,56.25
2019-05-13T03:41:22.791Z,56.25
2019-05-13T03:42:22.527Z,61.88
2019-05-13T03:43:22.945Z,61.88
2019-05-13T03:44:23.787Z,67.50
2019-05-13T03:45:22.039Z,73.13
2019-05-13T03:46:22.766Z,73.13
2019-05-13T03:47:23.013Z,78.75
2019-05-13T03:48:23.616Z,84.38
2019-05-13T03:49:23.333Z,84.38
2019-05-13T03:50:22.611Z,90.00
2019-05-13T03:51:22.267Z,95.63
2019-05-13T03:52:22.498Z,95.63
2019-05-13T03:53:23.415Z,101.25
2019-05-13T03:54:22.676Z,101.25
2019-05-13T03:55:23.161Z,101.25
2019-05-13T03:56:23.550Z,106.88
2019-05-13T03:57:23.206Z,112.50
2019-05-13T03:58:23.834Z,112.50
2019-05-13T03:59:22.533Z,118.13
2019-05-13T04:00:23.546Z,123.75
2019-05-13T04:01:22.338Z,123.75
2019-05-13T04:02:22.587Z,129.38
2019-05-13T04:03:22.747Z,135.00
2019-05-13T04:04:23.382Z,135.00
2019-05-13T04:05:22.961Z,140.63
2019-05-13T04:06:23.194Z,146.25
2019-05-13T04:07:23.676Z,146.25
2019-05-13T04:08:22.866Z,151.88
2019-05-13T04:09:30.158Z,157.50
2019-05-13T04:10:22.916Z,163.13
2019-05-13T04:11:22.665Z,163.13
2019-05-13T04:12:22.754Z,168.75
2019-05-13T04:13:23.413Z,174.38
2019-05-13T04:14:22.855Z,174.38
2019-05-13T04:15:23.622Z,185.63
2019-05-13T04:16:23.319Z,196.88
2019-05-13T04:17:20.190Z,202.50
2019-05-13T04:18:23.302Z,202.50
2019-05-13T04:19:23.236Z,208.13
2019-05-13T04:20:22.952Z,202.50
2019-05-13T04:21:22.596Z,202.50
2019-05-13T04:22:22.785Z,202.50
2019-05-13T04:23:22.884Z,208.13
2019-05-13T04:24:22.613Z,213.75
2019-05-13T04:25:22.845Z,213.75
2019-05-13T04:26:23.174Z,213.75
2019-05-13T04:27:23.002Z,213.75
2019-05-13T04:28:22.203Z,219.38
2019-05-13T04:29:19.679Z,225.00
2019-05-13T04:30:22.301Z,225.00
2019-05-13T04:31:22.461Z,230.63
2019-05-13T04:32:22.712Z,236.25
2019-05-13T04:33:22.607Z,241.88
2019-05-13T04:34:22.738Z,241.88
2019-05-13T04:35:22.248Z,241.88
2019-05-13T04:36:19.375Z,253.13
2019-05-13T04:37:22.269Z,253.13
2019-05-13T04:38:21.781Z,253.13
2019-05-13T04:39:39.047Z,253.13
2019-05-13T04:40:22.607Z,264.38
2019-05-13T04:41:22.589Z,270.00
2019-05-13T04:42:22.845Z,286.88
2019-05-13T04:43:19.108Z,292.50
2019-05-13T04:44:19.041Z,292.50
2019-05-13T04:45:19.007Z,286.88
2019-05-13T04:46:22.454Z,286.88
2019-05-13T04:47:18.916Z,298.13
2019-05-13T04:48:18.877Z,303.75
2019-05-13T04:49:18.869Z,309.38
2019-05-13T04:50:22.061Z,303.75
2019-05-13T04:51:22.331Z,315.00
2019-05-13T04:52:18.730Z,343.13
2019-05-13T04:53:18.664Z,343.13
2019-05-13T04:54:18.646Z,343.13
2019-05-13T04:55:18.571Z,348.75
2019-05-13T04:56:18.543Z,371.25
2019-05-13T04:57:18.498Z,393.75
2019-05-13T04:58:18.485Z,450.00
2019-05-13T04:59:18.433Z,483.75
2019-05-13T05:00:18.385Z,455.63
2019-05-13T05:01:18.313Z,466.88
2019-05-13T05:02:18.285Z,669.38
2019-05-13T05:03:23.043Z,883.13
2019-05-13T05:04:24.462Z,894.38
2019-05-13T05:05:18.181Z,821.25
2019-05-13T05:06:18.152Z,1001.25
2019-05-13T05:07:18.093Z,1096.88
2019-05-13T05:08:18.032Z,1175.63
2019-05-13T05:09:17.997Z,1254.38
2019-05-13T05:10:30.335Z,1248.75
2019-05-13T05:11:17.959Z,1226.25
2019-05-13T05:12:17.886Z,1344.38
2019-05-13T05:13:17.854Z,1378.13
2019-05-13T05:14:17.815Z,1321.88
2019-05-13T05:15:17.761Z,1316.25
2019-05-13T05:16:17.731Z,1158.75
2019-05-13T05:17:17.683Z,866.25
2019-05-13T05:18:17.657Z,691.88
2019-05-13T05:19:17.624Z,663.75
2019-05-13T05:20:17.569Z,523.13
2019-05-13T05:21:17.538Z,410.63
2019-05-13T05:22:17.499Z,376.88
2019-05-13T05:23:17.488Z,365.63
2019-05-13T05:24:17.438Z,365.63
2019-05-13T05:25:17.399Z,382.50
2019-05-13T05:26:17.405Z,410.63
2019-05-13T05:27:17.297Z,455.63
2019-05-13T05:28:17.274Z,495.00
2019-05-13T05:29:17.247Z,478.13
2019-05-13T05:30:17.175Z,427.50
2019-05-13T05:31:17.159Z,455.63
2019-05-13T05:32:17.113Z,455.63
2019-05-13T05:33:17.078Z,416.25
2019-05-13T05:34:17.042Z,461.25
2019-05-13T05:35:17.002Z,573.75
2019-05-13T05:36:16.958Z,562.50
2019-05-13T05:37:16.912Z,444.38
2019-05-13T05:38:16.876Z,416.25
2019-05-13T05:39:16.852Z,399.38
2019-05-13T05:40:28.167Z,399.38
2019-05-13T05:41:16.772Z,416.25
2019-05-13T05:42:16.722Z,416.25
2019-05-13T05:43:16.691Z,427.50
2019-05-13T05:44:16.654Z,433.13
2019-05-13T05:45:16.632Z,450.00
2019-05-13T05:46:16.611Z,433.13
2019-05-13T05:47:16.556Z,421.88
2019-05-13T05:48:16.518Z,410.63
2019-05-13T05:49:16.471Z,421.88
2019-05-13T05:50:16.412Z,399.38
2019-05-13T05:51:16.391Z,433.13
2019-05-13T05:52:16.355Z,511.88
2019-05-13T05:53:16.393Z,641.25
2019-05-13T05:54:16.272Z,686.25
2019-05-13T05:55:16.241Z,579.38
2019-05-13T05:56:16.213Z,495.00
2019-05-13T05:57:16.178Z,438.75
2019-05-13T05:58:16.137Z,416.25
2019-05-13T05:59:16.068Z,421.88
2019-05-13T06:00:16.039Z,427.50
2019-05-13T06:01:16.042Z,433.13
2019-05-13T06:02:15.963Z,433.13
2019-05-13T06:03:15.915Z,438.75
2019-05-13T06:04:15.879Z,444.38
2019-05-13T06:05:15.843Z,444.38
2019-05-13T06:06:15.804Z,461.25
2019-05-13T06:07:15.770Z,506.25
2019-05-13T06:08:17.707Z,506.25
2019-05-13T06:09:15.693Z,585.00
2019-05-13T06:10:15.655Z,641.25
2019-05-13T06:11:15.608Z,630.00
2019-05-13T06:12:15.599Z,652.50
2019-05-13T06:13:15.533Z,495.00
2019-05-13T06:14:15.497Z,461.25
2019-05-13T06:15:15.454Z,455.63
2019-05-13T06:16:15.433Z,461.25
2019-05-13T06:17:15.373Z,489.38
2019-05-13T06:18:15.353Z,450.00
2019-05-13T06:19:17.839Z,450.00
2019-05-13T06:20:15.256Z,461.25
2019-05-13T06:21:15.238Z,466.88
2019-05-13T06:22:15.178Z,461.25
2019-05-13T06:23:15.166Z,466.88
2019-05-13T06:24:15.106Z,472.50
2019-05-13T06:25:15.087Z,472.50
2019-05-13T06:26:15.043Z,461.25
2019-05-13T06:27:14.990Z,461.25
2019-05-13T06:28:14.959Z,466.88
2019-05-13T06:29:14.900Z,466.88
2019-05-13T06:30:14.889Z,466.88
2019-05-13T06:31:14.836Z,472.50
2019-05-13T06:32:21.985Z,472.50
2019-05-13T06:33:14.761Z,472.50
2019-05-13T06:34:14.737Z,472.50
2019-05-13T06:35:14.752Z,478.13
2019-05-13T06:36:14.654Z,478.13
2019-05-13T06:37:14.606Z,483.75
2019-05-13T06:38:14.561Z,489.38
2019-05-13T06:39:14.557Z,489.38
2019-05-13T06:40:14.532Z,495.00
2019-05-13T06:41:14.983Z,506.25
2019-05-13T06:42:14.447Z,517.50
2019-05-13T06:43:14.375Z,528.75
2019-05-13T06:44:14.336Z,523.13
2019-05-13T06:45:14.308Z,585.00
2019-05-13T06:46:14.254Z,945.00
2019-05-13T06:47:14.277Z,1276.88
2019-05-13T06:48:14.240Z,1732.50
2019-05-13T06:49:14.192Z,2075.63
2019-05-13T06:50:14.112Z,2216.25
2019-05-13T06:51:14.131Z,2660.63
2019-05-13T06:52:14.047Z,2722.50
2019-05-13T06:53:13.977Z,2340.00
2019-05-13T06:54:13.986Z,2266.88
2019-05-13T06:55:13.919Z,2205.00
2019-05-13T06:56:13.924Z,2632.50
2019-05-13T06:57:13.880Z,2688.75
2019-05-13T06:58:13.862Z,2441.25
2019-05-13T06:59:13.788Z,2632.50
2019-05-13T07:00:13.765Z,2728.13
2019-05-13T07:01:13.764Z,2604.38
2019-05-13T07:02:13.712Z,2790.00
2019-05-13T07:03:13.639Z,2610.00
2019-05-13T07:04:13.611Z,2340.00
2019-05-13T07:05:13.570Z,2379.38
2019-05-13T07:06:13.579Z,2823.75
2019-05-13T07:07:17.148Z,3071.25
2019-05-13T07:08:13.546Z,3155.63
2019-05-13T07:09:13.466Z,2936.25
2019-05-13T07:10:13.433Z,2761.88
2019-05-13T07:11:20.392Z,2587.50
2019-05-13T07:12:13.337Z,2874.38
2019-05-13T07:13:13.339Z,2806.88
2019-05-13T07:14:13.327Z,2508.75
2019-05-13T07:15:13.261Z,2823.75
2019-05-13T07:16:13.289Z,2621.25
2019-05-13T07:17:13.233Z,2559.38
2019-05-13T07:18:16.107Z,3161.25
2019-05-13T07:19:13.187Z,3296.25
2019-05-13T07:20:13.198Z,3127.50
2019-05-13T07:21:13.116Z,3144.38
2019-05-13T07:22:13.061Z,3105.00
2019-05-13T07:23:13.040Z,3020.63
2019-05-13T07:24:13.076Z,2908.13
2019-05-13T07:25:13.032Z,2868.75
2019-05-13T07:26:12.958Z,2896.88
2019-05-13T07:27:12.941Z,2958.75
2019-05-13T07:28:12.953Z,3279.38
2019-05-13T07:29:13.548Z,3037.50
2019-05-13T07:30:12.879Z,2925.00
2019-05-13T07:31:12.824Z,3099.38
2019-05-13T07:32:12.839Z,2857.50
2019-05-13T07:33:12.987Z,2593.13
2019-05-13T07:34:12.773Z,2739.38
2019-05-13T07:35:14.476Z,3510.00
2019-05-13T07:36:12.941Z,3695.63
2019-05-13T07:37:12.807Z,3166.88
2019-05-13T07:38:12.687Z,2947.50
2019-05-13T07:39:12.598Z,3245.63
2019-05-13T07:40:12.590Z,3808.13
2019-05-13T07:41:12.565Z,4235.63
2019-05-13T07:42:12.696Z,3515.63
2019-05-13T07:43:12.621Z,3020.63
2019-05-13T07:44:12.529Z,3105.00
2019-05-13T07:45:12.592Z,3003.75
2019-05-13T07:46:12.758Z,3031.88
2019-05-13T07:47:15.699Z,2925.00
2019-05-13T07:48:20.930Z,3110.63
2019-05-13T07:49:12.353Z,3251.25
2019-05-13T07:50:12.859Z,3465.00
2019-05-13T07:51:12.312Z,3324.38
2019-05-13T07:52:12.278Z,2840.63
2019-05-13T07:53:18.514Z,3251.25
2019-05-13T07:54:12.235Z,3318.75
2019-05-13T07:55:12.234Z,3335.63
2019-05-13T07:56:12.602Z,3633.75
2019-05-13T07:57:12.669Z,3560.63
2019-05-13T07:58:12.130Z,3144.38
2019-05-13T07:59:12.492Z,3127.50
2019-05-13T08:00:12.609Z,3397.50
2019-05-13T08:01:12.457Z,3836.25
2019-05-13T08:02:12.497Z,3656.25
2019-05-13T08:03:12.499Z,1366.88
2019-05-13T08:04:22.018Z,2475.00
2019-05-13T08:05:12.196Z,1074.38
2019-05-13T08:06:11.952Z,3420.00
2019-05-13T08:07:12.204Z,3571.88
2019-05-13T08:08:12.116Z,3684.38
2019-05-13T08:09:12.779Z,2058.75
2019-05-13T08:10:11.882Z,3616.88
2019-05-13T08:11:12.808Z,3504.38
2019-05-13T08:12:14.304Z,1400.63
2019-05-13T08:13:12.149Z,3960.00
2019-05-13T08:14:12.381Z,3543.75
2019-05-13T08:15:12.114Z,4027.50
2019-05-13T08:16:12.349Z,3729.38
2019-05-13T08:17:11.763Z,4066.88
2019-05-13T08:18:12.400Z,4185.00
2019-05-13T08:19:12.321Z,3982.50
2019-05-13T08:20:12.559Z,4213.13
2019-05-13T08:21:12.354Z,1248.75
2019-05-13T08:22:12.134Z,888.75
2019-05-13T08:23:12.003Z,3442.50
2019-05-13T08:24:12.058Z,3645.00
2019-05-13T08:25:12.611Z,3847.50
2019-05-13T08:26:12.412Z,4179.38
2019-05-13T08:27:11.869Z,4831.88
2019-05-13T08:28:12.292Z,4651.88
2019-05-13T08:29:11.544Z,2491.88
2019-05-13T08:30:12.022Z,4623.75
2019-05-13T08:31:12.055Z,4083.75
2019-05-13T08:32:11.409Z,3684.38
2019-05-13T08:33:12.561Z,3746.25
2019-05-13T08:34:11.966Z,3138.75
2019-05-13T08:35:12.454Z,2908.13
2019-05-13T08:36:12.287Z,3948.75
2019-05-13T08:37:11.425Z,4516.88
2019-05-13T08:38:12.090Z,1980.00
2019-05-13T08:39:12.678Z,1366.88
2019-05-13T08:40:12.053Z,4173.75
2019-05-13T08:41:18.826Z,2295.00
2019-05-13T08:42:15.775Z,5023.13
2019-05-13T08:43:12.069Z,4584.38
2019-05-13T08:44:12.339Z,4185.00
2019-05-13T08:45:12.018Z,4449.38
2019-05-13T08:46:12.509Z,4258.13
2019-05-13T08:47:12.102Z,3841.88
2019-05-13T08:48:12.680Z,4567.50
2019-05-13T08:49:11.860Z,4471.88
2019-05-13T08:50:12.007Z,2323.13
2019-05-13T08:51:11.702Z,1260.00
2019-05-13T08:52:12.149Z,4488.75
2019-05-13T08:53:12.183Z,1355.63
2019-05-13T08:54:11.459Z,5169.38
2019-05-13T08:55:13.699Z,4685.63
2019-05-13T08:56:12.197Z,2728.13
2019-05-13T08:57:12.318Z,2070.00
2019-05-13T08:58:12.551Z,3695.63
2019-05-13T08:59:11.532Z,4438.13
2019-05-13T09:00:13.486Z,5068.13
2019-05-13T09:01:12.397Z,5023.13
2019-05-13T09:02:11.562Z,4713.75
2019-05-13T09:03:12.136Z,4100.63
2019-05-13T09:04:11.877Z,5146.88
2019-05-13T09:05:12.045Z,4955.63
2019-05-13T09:06:11.676Z,4691.25
2019-05-13T09:07:12.117Z,4545.00
2019-05-13T09:08:11.493Z,2840.63
2019-05-13T09:09:11.552Z,4061.25
2019-05-13T09:10:12.411Z,4303.13
2019-05-13T09:11:12.031Z,4961.25
2019-05-13T09:12:11.634Z,5394.38
2019-05-13T09:13:12.104Z,4218.75
2019-05-13T09:14:11.249Z,3971.25
2019-05-13T09:15:11.918Z,4561.88
2019-05-13T09:16:13.008Z,3161.25
2019-05-13T09:17:12.029Z,4944.38
2019-05-13T09:18:11.460Z,1119.38
2019-05-13T09:19:15.750Z,1625.63
2019-05-13T09:20:11.506Z,1535.63
2019-05-13T09:21:11.661Z,4893.75
2019-05-13T09:22:12.184Z,4663.13
2019-05-13T09:23:11.429Z,1755.00
2019-05-13T09:24:21.733Z,4038.75
2019-05-13T09:25:12.339Z,4213.13
2019-05-13T09:26:11.945Z,1035.00
2019-05-13T09:27:12.043Z,4196.25
2019-05-13T09:28:12.339Z,5045.63
2019-05-13T09:29:11.927Z,5130.00
2019-05-13T09:30:11.806Z,4741.88
2019-05-13T09:31:12.370Z,4010.63
2019-05-13T09:32:11.893Z,4258.13
2019-05-13T09:33:11.445Z,4466.25
2019-05-13T09:34:11.908Z,4578.75
2019-05-13T09:35:12.028Z,4449.38
2019-05-13T09:36:12.325Z,4207.50
2019-05-13T09:37:11.701Z,4370.63
2019-05-13T09:38:09.507Z,4381.88
2019-05-13T09:39:12.397Z,4095.00
2019-05-13T09:40:11.433Z,4854.38
2019-05-13T09:41:12.150Z,4663.13
2019-05-13T09:42:09.444Z,3037.50
2019-05-13T09:43:11.529Z,2812.50
2019-05-13T09:44:09.504Z,3791.25
2019-05-13T09:45:09.393Z,5045.63
2019-05-13T09:46:11.686Z,4995.00
2019-05-13T09:47:09.354Z,4899.38
2019-05-13T09:48:09.283Z,4550.63
2019-05-13T09:49:18.558Z,4376.25
2019-05-13T09:50:25.597Z,4674.38
2019-05-13T09:51:09.272Z,4342.50
2019-05-13T09:52:11.756Z,4775.63
2019-05-13T09:53:11.455Z,4516.88
2019-05-13T09:54:11.496Z,3892.50
2019-05-13T09:55:24.396Z,4556.25
2019-05-13T09:56:11.671Z,5011.88
2019-05-13T09:57:09.074Z,3144.38
2019-05-13T09:58:11.667Z,4668.75
2019-05-13T09:59:11.539Z,5478.75
2019-05-13T10:00:08.955Z,5096.25
2019-05-13T10:01:08.903Z,4398.75
2019-05-13T10:02:08.957Z,1243.13
2019-05-13T10:03:08.865Z,1305.00
2019-05-13T10:04:08.827Z,1035.00
2019-05-13T10:05:11.166Z,3161.25
2019-05-13T10:06:08.771Z,1181.25
2019-05-13T10:07:11.942Z,4764.38
2019-05-13T10:08:08.698Z,4528.13
2019-05-13T10:09:08.692Z,4252.50
2019-05-13T10:10:08.662Z,4770.00
2019-05-13T10:11:08.678Z,5490.00
2019-05-13T10:12:08.619Z,5501.25
2019-05-13T10:13:12.527Z,4561.88
2019-05-13T10:14:08.625Z,4050.00
2019-05-13T10:15:08.510Z,4005.00
2019-05-13T10:16:08.608Z,4578.75
2019-05-13T10:17:08.581Z,4860.00
2019-05-13T10:18:08.436Z,4989.38
2019-05-13T10:19:08.521Z,5585.63
2019-05-13T10:20:08.379Z,5495.63
2019-05-13T10:21:08.345Z,4786.88
2019-05-13T10:22:08.316Z,1873.13
2019-05-13T10:23:08.312Z,4584.38
2019-05-13T10:24:08.263Z,1361.25
2019-05-13T10:25:08.262Z,1305.00
2019-05-13T10:26:08.225Z,5096.25
2019-05-13T10:27:08.200Z,3318.75
2019-05-13T10:28:08.199Z,1158.75
2019-05-13T10:29:08.122Z,3020.63
2019-05-13T10:30:08.118Z,3813.75
2019-05-13T10:31:08.043Z,3898.13
2019-05-13T10:32:08.736Z,4443.75
2019-05-13T10:33:08.011Z,4584.38
2019-05-13T10:34:08.000Z,4848.75
2019-05-13T10:35:07.978Z,5186.25
2019-05-13T10:36:08.002Z,5152.50
2019-05-13T10:37:08.144Z,5152.50
2019-05-13T10:38:07.917Z,5298.75
2019-05-13T10:39:07.833Z,4916.25
2019-05-13T10:40:07.851Z,4651.88
2019-05-13T10:41:07.897Z,4972.50
2019-05-13T10:42:07.758Z,4955.63
2019-05-13T10:43:25.252Z,4623.75
2019-05-13T10:44:07.696Z,4983.75
2019-05-13T10:45:07.734Z,3538.13
2019-05-13T10:46:07.639Z,2863.13
2019-05-13T10:47:07.614Z,3915.00
2019-05-13T10:48:10.479Z,1333.13
2019-05-13T10:49:07.548Z,1164.38
2019-05-13T10:50:07.516Z,1153.13
2019-05-13T10:51:07.634Z,1147.50
2019-05-13T10:52:07.496Z,4629.38
2019-05-13T10:53:07.447Z,5501.25
2019-05-13T10:54:07.415Z,1400.63
2019-05-13T10:55:07.442Z,5259.38
2019-05-13T10:56:07.356Z,5326.88
2019-05-13T10:57:07.343Z,4725.00
2019-05-13T10:58:07.363Z,4657.50
2019-05-13T10:59:07.300Z,4741.88
2019-05-13T11:00:07.246Z,5034.38
2019-05-13T11:01:07.246Z,4831.88
2019-05-13T11:02:07.182Z,4404.38
2019-05-13T11:03:07.150Z,4966.88
2019-05-13T11:04:12.495Z,5135.63
2019-05-13T11:05:07.173Z,5585.63
2019-05-13T11:06:07.107Z,5265.00
2019-05-13T11:07:07.050Z,1389.38
2019-05-13T11:08:07.089Z,1260.00
2019-05-13T11:09:07.009Z,1299.38
2019-05-13T11:10:06.950Z,2936.25
2019-05-13T11:11:06.932Z,5051.25
2019-05-13T11:12:06.905Z,5169.38
2019-05-13T11:13:10.758Z,4876.88
2019-05-13T11:14:11.379Z,4488.75
2019-05-13T11:15:07.767Z,5163.75
2019-05-13T11:16:06.789Z,6086.25
2019-05-13T11:17:06.816Z,4376.25
2019-05-13T11:18:06.723Z,4291.88
2019-05-13T11:19:06.695Z,4741.88
2019-05-13T11:20:06.679Z,4921.88
2019-05-13T11:21:06.692Z,4696.88
2019-05-13T11:22:06.622Z,5270.63
2019-05-13T11:23:06.633Z,5220.00
2019-05-13T11:24:06.548Z,4713.75
2019-05-13T11:25:06.634Z,5051.25
2019-05-13T11:26:06.662Z,4753.13
2019-05-13T11:27:06.514Z,4702.50
2019-05-13T11:28:06.416Z,5220.00
2019-05-13T11:29:06.445Z,4955.63
2019-05-13T11:30:07.669Z,4770.00
2019-05-13T11:31:06.328Z,5208.75
2019-05-13T11:32:06.346Z,5445.00
2019-05-13T11:33:10.047Z,4747.50
2019-05-13T11:34:06.285Z,1406.25
2019-05-13T11:35:06.261Z,5141.25
2019-05-13T11:36:06.190Z,3031.88
2019-05-13T11:37:06.172Z,1479.38
2019-05-13T11:38:06.133Z,3830.63
2019-05-13T11:39:06.114Z,4736.25
2019-05-13T11:40:06.145Z,5338.13
2019-05-13T11:41:06.037Z,4584.38
2019-05-13T11:42:06.008Z,4325.63
2019-05-13T11:43:05.997Z,4269.38
2019-05-13T11:44:15.865Z,4376.25
2019-05-13T11:45:05.926Z,4128.75
2019-05-13T11:46:07.020Z,4297.50
2019-05-13T11:47:05.935Z,4775.63
2019-05-13T11:48:05.843Z,4494.38
2019-05-13T11:49:05.800Z,4224.38
2019-05-13T11:50:05.809Z,3538.13
2019-05-13T11:51:05.782Z,4083.75
2019-05-13T11:52:05.730Z,4078.13
2019-05-13T11:53:30.012Z,4168.13
2019-05-13T11:54:05.652Z,4657.50
2019-05-13T11:55:06.270Z,4635.00
2019-05-13T11:56:05.620Z,4696.88
2019-05-13T11:57:06.397Z,4342.50
2019-05-13T11:58:05.549Z,4471.88
2019-05-13T11:59:05.581Z,4674.38
2019-05-13T12:00:05.515Z,4837.50
2019-05-13T12:01:05.478Z,4730.63
2019-05-13T12:02:05.427Z,4494.38
2019-05-13T12:03:05.587Z,4443.75
2019-05-13T12:04:05.398Z,3971.25
2019-05-13T12:05:05.324Z,4680.00
2019-05-13T12:06:05.511Z,4938.75
2019-05-13T12:07:05.304Z,4280.63
2019-05-13T12:08:05.416Z,4488.75
2019-05-13T12:09:05.316Z,4972.50
2019-05-13T12:10:05.224Z,4438.13
2019-05-13T12:11:06.451Z,3909.38
2019-05-13T12:12:05.136Z,4005.00
2019-05-13T12:13:05.124Z,4246.88
2019-05-13T12:14:05.070Z,3825.00
2019-05-13T12:15:26.320Z,4106.25
2019-05-13T12:16:05.045Z,4466.25
2019-05-13T12:17:04.969Z,4629.38
2019-05-13T12:18:04.947Z,4280.63
2019-05-13T12:19:04.919Z,4342.50
2019-05-13T12:20:04.907Z,5146.88
2019-05-13T12:21:04.865Z,4758.75
2019-05-13T12:22:04.845Z,4905.00
2019-05-13T12:23:04.808Z,4398.75
2019-05-13T12:24:10.537Z,4140.00
2019-05-13T12:25:04.740Z,3926.25
2019-05-13T12:26:05.319Z,4331.25
2019-05-13T12:27:04.711Z,5270.63
2019-05-13T12:28:04.646Z,5011.88
2019-05-13T12:29:04.643Z,1811.25
2019-05-13T12:30:04.604Z,5388.75